Close

Questo sito utlizza cookie. Può leggere come li usiamo nella nostra Privacy Policy.

Ronchi Tower
Ronchi Tower

From Facebook

METAR & TAF

2019/08/21 09:50 LIPQ 210950Z 10012KT 9999 SCT060 32/20 Q1018
2019/08/21 06:21 TAF LIPQ 210500Z 2106/2206 VRB04KT CAVOK
2019/08/21 09:50 LIPZ 210950Z 04006KT 360V070 9999 FEW030 29/19 Q1018 NOSIG
2019/08/21 06:21 TAF LIPZ 210500Z 2106/2212 04010KT CAVOK BECMG 2110/2112 12010KT BECMG 2116/2118 04010KT
2019/08/21 09:50 LIPH 210950Z 01003KT 290V080 9999 FEW040 30/19 Q1018
2019/08/21 06:26 TAF LIPH 210500Z 2106/2206 VRB05KT 9999 FEW030 PROB40 TEMPO 2114/2121 4000 TSRA
2019/08/21 09:50 LIRF 210950Z 28009KT CAVOK 27/21 Q1017 NOSIG
2019/08/21 06:21 TAF LIRF 210500Z 2106/2212 VRB05KT CAVOK BECMG 2109/2111 28012KT BECMG 2118/2120 VRB05KT BECMG 2208/2210 29012KT
2019/07/31 15:50 LIML 311550Z 23006KT 160V270 9999 SCT050 29/18 Q1012 NOSIG
2019/07/26 18:21 TAF LIML 261700Z 2618/2718 VRB05KT 9999 SCT050 TEMPO 2709/2718 3000 TSRA SCT010CB BKN040
2019/08/21 09:50 EDDM 210950Z 09005KT 020V150 9999 SCT030 18/10 Q1029 NOSIG
2019/08/21 06:27 TAF EDDM 210500Z 2106/2212 VRB03KT 9999 SCT012 BKN030 TEMPO 2106/2107 BKN010 BECMG 2107/2109 08005KT PROB30 TEMPO 2203/2205 2000 BCFG BECMG 2208/2210 08010KT
2019/08/21 09:50 EGSS 210950Z AUTO 23009KT 190V260 9999 NCD 19/12 Q1027
2019/08/21 06:09 TAF EGSS 210455Z 2106/2212 23004KT 9999 FEW040 PROB30 2202/2207 6000
2019/08/21 09:50 EDDF 210950Z VRB03KT 9999 FEW025 20/13 Q1028 NOSIG
2019/08/21 06:28 TAF EDDF 210500Z 2106/2212 VRB03KT CAVOK BECMG 2108/2112 04005KT

FlightRadar24

Radar Meteo

Traffic data

Agosto 2018

Passeggeri: 63892-12,9% (rank: 23)
Nazionali 34490 -19,8%
Internazionali 29193 -3,0%

Movimenti: 1307+11,7% (rank: 24)
Tot commerciale 556 -7,2%
Aviazione generale 751 +31,5%

Cargo (tons): 20,6+62,5% (rank: 21)

Gennaio - Agosto 2018

Passeggeri: 507438-3,5% (rank: 23)
Nazionali 322655 -4,9%
Internazionali 182927 -0,7%

Movimenti: 10366-4,25 (rank: 22)
Tot commerciale 5328 -11,0%
Aviazione generale 5038 +4,2%

Cargo (tons): 299,2+61,9% (rank: 20)

Photo

Douglas DC-6B
Douglas DC-6B
Distinct views: 15
Douglas DC-6B
Douglas DC-6B
Distinct views: 62
Douglas DC-6B
Douglas DC-6B
Distinct views: 212
McDonnell Douglas MD-83
McDonnell Douglas MD-83
Total views: 1157